createdAt,value
2022-09-05T00:00:14.597Z,15.50
2022-09-05T00:03:03.808Z,15.50
2022-09-05T00:05:54.078Z,15.40
2022-09-05T00:08:46.612Z,15.40
2022-09-05T00:11:43.249Z,15.40
2022-09-05T00:15:17.576Z,15.40
2022-09-05T00:20:06.406Z,15.40
2022-09-05T00:24:27.972Z,15.50
2022-09-05T00:25:00.910Z,15.40
2022-09-05T00:27:49.900Z,15.30
2022-09-05T00:31:08.639Z,15.30
2022-09-05T00:33:32.458Z,15.30
2022-09-05T00:36:25.714Z,15.30
2022-09-05T00:38:59.448Z,15.30
2022-09-05T00:41:27.544Z,15.30
2022-09-05T00:43:55.661Z,15.20
2022-09-05T00:46:32.286Z,15.30
2022-09-05T00:49:23.272Z,15.10
2022-09-05T00:52:01.752Z,15.00
2022-09-05T00:54:43.132Z,14.90
2022-09-05T00:57:25.856Z,14.90
2022-09-05T01:00:16.441Z,14.80
2022-09-05T01:03:10.542Z,14.80
2022-09-05T01:06:22.588Z,15.00
2022-09-05T01:09:07.314Z,15.00
2022-09-05T01:12:01.735Z,15.10
2022-09-05T01:14:38.029Z,15.00
2022-09-05T01:17:22.260Z,14.90
2022-09-05T01:20:25.386Z,14.80
2022-09-05T01:23:15.630Z,14.70
2022-09-05T01:25:52.495Z,14.70
2022-09-05T01:29:16.181Z,14.60
2022-09-05T01:31:58.702Z,14.50
2022-09-05T01:34:54.336Z,14.50
2022-09-05T01:37:42.834Z,14.60
2022-09-05T01:41:17.785Z,14.60
2022-09-05T01:44:14.948Z,14.60
2022-09-05T01:47:04.701Z,14.60
2022-09-05T01:50:01.389Z,14.60
2022-09-05T01:52:59.842Z,14.50
2022-09-05T01:56:04.877Z,14.40
2022-09-05T01:58:46.481Z,14.50
2022-09-05T02:01:26.599Z,14.50
2022-09-05T02:04:07.292Z,14.50
2022-09-05T02:06:56.877Z,14.50
2022-09-05T02:10:16.442Z,14.50
2022-09-05T02:13:02.624Z,14.40
2022-09-05T02:15:59.861Z,14.40
2022-09-05T02:18:41.383Z,14.40
2022-09-05T02:21:56.773Z,14.40
2022-09-05T02:24:32.819Z,14.40
2022-09-05T02:28:04.229Z,14.30
2022-09-05T02:30:16.070Z,14.20
2022-09-05T02:33:16.155Z,14.10
2022-09-05T02:36:12.047Z,14.10
2022-09-05T02:45:06.607Z,14.20
2022-09-05T02:45:12.661Z,14.20
2022-09-05T02:45:25.421Z,14.10
2022-09-05T02:48:16.237Z,14.00
2022-09-05T02:57:23.824Z,14.00
2022-09-05T02:57:41.943Z,13.90
2022-09-05T02:57:46.689Z,13.90
2022-09-05T03:00:08.120Z,13.90
2022-09-05T03:02:49.589Z,13.90
2022-09-05T03:05:53.462Z,13.90
2022-09-05T03:08:29.332Z,13.90
2022-09-05T03:11:14.394Z,13.90
2022-09-05T03:13:56.275Z,14.00
2022-09-05T03:17:14.914Z,13.90
2022-09-05T03:19:59.850Z,13.90
2022-09-05T03:22:41.117Z,13.90
2022-09-05T03:25:37.149Z,13.90
2022-09-05T03:28:26.725Z,13.90
2022-09-05T03:31:31.818Z,13.90
2022-09-05T03:34:16.773Z,13.80
2022-09-05T03:36:46.389Z,13.80
2022-09-05T03:39:18.717Z,13.70
2022-09-05T03:42:16.705Z,13.70
2022-09-05T03:45:15.599Z,13.70
2022-09-05T03:48:28.501Z,13.70
2022-09-05T03:57:08.811Z,13.60
2022-09-05T03:57:26.943Z,13.60
2022-09-05T03:58:32.110Z,13.70
2022-09-05T04:04:42.141Z,13.60
2022-09-05T04:08:28.021Z,13.40
2022-09-05T04:08:30.844Z,13.50
2022-09-05T04:10:28.221Z,13.50
2022-09-05T04:13:01.431Z,13.50
2022-09-05T04:15:54.603Z,13.50
2022-09-05T04:18:33.632Z,13.40
2022-09-05T04:21:32.333Z,13.20
2022-09-05T04:24:24.545Z,13.20
2022-09-05T04:27:04.334Z,13.20
2022-09-05T04:29:54.591Z,13.20
2022-09-05T04:32:32.856Z,13.20
2022-09-05T04:35:23.981Z,13.30
2022-09-05T04:37:58.183Z,13.30
2022-09-05T04:40:59.726Z,13.30
2022-09-05T04:43:34.115Z,13.30
2022-09-05T04:46:22.082Z,13.30
2022-09-05T04:49:10.031Z,13.30
2022-09-05T04:52:02.169Z,13.30
2022-09-05T04:54:35.571Z,13.30
2022-09-05T04:57:14.222Z,13.30
2022-09-05T05:05:58.818Z,13.40
2022-09-05T05:06:17.933Z,13.30
2022-09-05T05:06:18.131Z,13.40
2022-09-05T05:08:56.907Z,13.30
2022-09-05T05:17:59.476Z,13.20
2022-09-05T05:18:13.921Z,13.20
2022-09-05T05:18:15.970Z,13.30
2022-09-05T05:21:20.341Z,13.40
2022-09-05T05:24:07.190Z,13.40
2022-09-05T05:26:36.346Z,13.40
2022-09-05T05:29:10.976Z,13.50
2022-09-05T05:31:46.230Z,13.60
2022-09-05T05:34:32.013Z,13.80
2022-09-05T05:37:10.487Z,13.90
2022-09-05T05:39:43.521Z,14.00
2022-09-05T05:42:20.714Z,14.00
2022-09-05T05:44:57.465Z,13.80
2022-09-05T05:47:35.159Z,13.70
2022-09-05T05:50:11.423Z,13.90
2022-09-05T05:52:59.014Z,14.10
2022-09-05T05:55:53.512Z,14.30
2022-09-05T05:58:32.818Z,14.60
2022-09-05T06:01:38.377Z,14.80
2022-09-05T06:04:43.296Z,15.00
2022-09-05T06:07:35.974Z,15.30
2022-09-05T06:15:02.059Z,15.50
2022-09-05T06:15:09.230Z,15.70
2022-09-05T06:16:41.714Z,15.90
2022-09-05T06:19:58.295Z,16.20
2022-09-05T06:23:00.895Z,16.50
2022-09-05T06:26:09.412Z,16.70
2022-09-05T06:28:59.129Z,16.90
2022-09-05T06:31:34.778Z,17.10
2022-09-05T06:34:27.288Z,17.30
2022-09-05T06:37:34.162Z,17.40
2022-09-05T06:40:10.467Z,17.50
2022-09-05T06:42:52.557Z,17.60
2022-09-05T06:45:34.162Z,17.40
2022-09-05T06:48:36.638Z,17.50
2022-09-05T06:51:35.251Z,17.60
2022-09-05T06:54:10.911Z,17.60
2022-09-05T06:57:21.696Z,17.60
2022-09-05T07:00:18.194Z,17.60
2022-09-05T07:03:07.842Z,17.80
2022-09-05T07:05:46.822Z,17.80
2022-09-05T07:08:34.918Z,17.90
2022-09-05T07:11:20.986Z,18.00
2022-09-05T07:14:02.442Z,18.20
2022-09-05T07:16:41.531Z,18.30
2022-09-05T07:19:21.967Z,18.30
2022-09-05T07:21:51.319Z,18.20
2022-09-05T07:24:54.627Z,18.20
2022-09-05T07:27:12.711Z,18.30
2022-09-05T07:29:57.861Z,18.20
2022-09-05T07:32:31.061Z,18.30
2022-09-05T07:35:01.307Z,18.60
2022-09-05T07:37:43.514Z,18.70
2022-09-05T07:40:25.432Z,18.70
2022-09-05T07:43:18.831Z,18.70
2022-09-05T07:45:56.009Z,19.00
2022-09-05T07:48:35.025Z,19.30
2022-09-05T07:55:43.491Z,19.40
2022-09-05T07:57:15.920Z,19.50
2022-09-05T07:57:22.282Z,19.40
2022-09-05T07:59:39.703Z,19.60
2022-09-05T08:02:10.664Z,19.90
2022-09-05T08:04:40.584Z,20.00
2022-09-05T08:07:49.459Z,20.00
2022-09-05T08:10:19.360Z,20.10
2022-09-05T08:13:23.723Z,20.40
2022-09-05T08:16:13.033Z,20.60
2022-09-05T08:19:11.226Z,20.50
2022-09-05T08:21:46.087Z,20.50
2022-09-05T08:24:25.141Z,20.70
2022-09-05T08:27:02.896Z,21.00
2022-09-05T08:29:37.802Z,20.90
2022-09-05T08:32:35.145Z,21.10
2022-09-05T08:35:16.067Z,21.20
2022-09-05T08:37:44.393Z,21.30
2022-09-05T08:40:25.424Z,21.30
2022-09-05T08:43:45.753Z,21.50
2022-09-05T08:46:42.599Z,21.50
2022-09-05T08:48:54.800Z,21.70
2022-09-05T08:51:28.886Z,21.90
2022-09-05T08:54:08.819Z,22.00
2022-09-05T08:56:53.814Z,22.30
2022-09-05T08:59:47.780Z,22.40
2022-09-05T09:03:05.241Z,22.50
2022-09-05T09:06:13.435Z,22.60
2022-09-05T09:08:50.775Z,22.80
2022-09-05T09:11:53.228Z,22.80
2022-09-05T09:14:43.597Z,22.90
2022-09-05T09:17:23.219Z,22.90
2022-09-05T09:19:55.834Z,23.00
2022-09-05T09:22:52.993Z,23.20
2022-09-05T09:25:26.427Z,23.50
2022-09-05T09:28:46.975Z,23.70
2022-09-05T09:31:17.855Z,23.80
2022-09-05T09:34:02.299Z,23.70
2022-09-05T09:36:50.549Z,23.90
2022-09-05T09:39:45.388Z,24.00
2022-09-05T09:42:37.311Z,24.20
2022-09-05T09:45:29.540Z,24.30
2022-09-05T09:48:16.120Z,24.50
2022-09-05T09:51:00.592Z,24.70
2022-09-05T09:53:37.207Z,24.80
2022-09-05T09:56:25.079Z,24.70
2022-09-05T09:59:20.696Z,25.00
2022-09-05T10:03:18.504Z,25.10
2022-09-05T10:10:35.273Z,25.10
2022-09-05T10:10:47.489Z,25.10
2022-09-05T10:11:48.536Z,25.50
2022-09-05T10:14:30.700Z,25.40
2022-09-05T10:17:37.993Z,25.50
2022-09-05T10:20:28.689Z,25.70
2022-09-05T10:23:33.273Z,25.90
2022-09-05T10:26:35.144Z,26.10
2022-09-05T10:29:36.488Z,26.00
2022-09-05T10:33:49.806Z,26.10
2022-09-05T10:35:21.332Z,26.20
2022-09-05T10:38:00.756Z,26.30
2022-09-05T10:40:39.679Z,26.40
2022-09-05T10:43:26.298Z,26.60
2022-09-05T10:45:55.791Z,26.60
2022-09-05T10:48:51.094Z,26.80
2022-09-05T10:51:40.262Z,26.80
2022-09-05T10:54:22.608Z,27.00
2022-09-05T10:56:59.082Z,27.20
2022-09-05T11:02:21.334Z,27.10
2022-09-05T11:02:57.793Z,27.20
2022-09-05T11:05:33.867Z,27.20
2022-09-05T11:08:23.717Z,27.00
2022-09-05T11:11:28.302Z,26.70
2022-09-05T11:14:05.096Z,27.00
2022-09-05T11:16:48.796Z,27.20
2022-09-05T11:19:21.499Z,26.90
2022-09-05T11:22:22.387Z,26.90
2022-09-05T11:24:57.847Z,27.00
2022-09-05T11:27:36.232Z,27.10
2022-09-05T11:30:28.948Z,27.20
2022-09-05T11:39:50.565Z,27.50
2022-09-05T11:39:57.409Z,27.90
2022-09-05T11:40:06.721Z,27.80
2022-09-05T11:42:19.687Z,28.20
2022-09-05T11:45:29.641Z,28.20
2022-09-05T11:48:33.100Z,28.40
2022-09-05T11:51:33.895Z,28.40
2022-09-05T11:54:42.482Z,28.50
2022-09-05T11:57:34.732Z,28.40
2022-09-05T12:00:32.812Z,28.40
2022-09-05T12:02:58.602Z,28.50
2022-09-05T12:05:59.045Z,28.50
2022-09-05T12:08:53.000Z,28.80
2022-09-05T12:11:25.077Z,28.90
2022-09-05T12:14:21.021Z,29.00
2022-09-05T12:17:10.300Z,29.10
2022-09-05T12:19:50.332Z,29.20
2022-09-05T12:22:39.051Z,29.20
2022-09-05T12:27:39.692Z,29.50
2022-09-05T12:29:32.818Z,29.60
2022-09-05T12:32:31.189Z,29.40
2022-09-05T12:36:10.116Z,29.30
2022-09-05T12:40:53.695Z,29.20
2022-09-05T12:41:33.758Z,29.50
2022-09-05T12:44:34.689Z,29.70
2022-09-05T12:46:18.687Z,29.80
2022-09-05T12:49:08.537Z,29.70
2022-09-05T12:51:46.222Z,29.40
2022-09-05T12:54:34.196Z,29.40
2022-09-05T12:59:15.049Z,29.60
2022-09-05T13:03:06.942Z,29.90
2022-09-05T13:03:28.773Z,29.70
2022-09-05T13:06:24.931Z,29.60
2022-09-05T13:08:59.038Z,29.60
2022-09-05T13:14:47.274Z,29.60
2022-09-05T13:14:53.611Z,29.60
2022-09-05T13:17:10.676Z,29.80
2022-09-05T13:19:43.463Z,29.50
2022-09-05T13:22:13.602Z,29.70
2022-09-05T13:24:44.608Z,30.00
2022-09-05T13:27:29.447Z,30.00
2022-09-05T13:35:45.171Z,30.00
2022-09-05T13:38:17.894Z,29.70
2022-09-05T13:38:21.302Z,30.10
2022-09-05T13:39:10.694Z,29.80
2022-09-05T13:41:44.935Z,29.90
2022-09-05T13:44:37.269Z,29.80
2022-09-05T13:47:22.018Z,29.60
2022-09-05T13:50:14.555Z,29.70
2022-09-05T13:52:45.972Z,29.70
2022-09-05T13:55:20.006Z,29.80
2022-09-05T13:58:02.468Z,29.40
2022-09-05T14:00:59.932Z,29.20
2022-09-05T14:03:42.573Z,29.10
2022-09-05T14:06:46.415Z,29.10
2022-09-05T14:09:36.776Z,29.10
2022-09-05T14:12:38.837Z,28.70
2022-09-05T14:15:25.878Z,28.50
2022-09-05T14:17:55.306Z,28.20
2022-09-05T14:20:26.075Z,28.20
2022-09-05T14:23:11.019Z,28.10
2022-09-05T14:25:52.462Z,28.10
2022-09-05T14:28:36.163Z,28.00
2022-09-05T14:35:59.113Z,28.00
2022-09-05T14:37:49.195Z,27.80
2022-09-05T14:37:51.909Z,27.90
2022-09-05T14:40:29.838Z,27.80
2022-09-05T14:43:24.387Z,27.80
2022-09-05T14:46:08.242Z,27.90
2022-09-05T14:49:18.449Z,27.90
2022-09-05T14:51:51.225Z,27.70
2022-09-05T15:02:40.895Z,27.50
2022-09-05T15:02:49.219Z,27.40
2022-09-05T15:03:02.036Z,27.30
2022-09-05T15:05:30.040Z,27.40
2022-09-05T15:11:16.861Z,27.20
2022-09-05T15:12:25.202Z,27.20
2022-09-05T15:14:05.847Z,27.30
2022-09-05T15:16:35.015Z,27.30
2022-09-05T15:19:01.761Z,27.30
2022-09-05T15:21:36.237Z,27.30
2022-09-05T15:24:25.368Z,27.20
2022-09-05T15:26:59.296Z,27.20
2022-09-05T15:29:28.706Z,27.20
2022-09-05T15:32:22.934Z,27.20
2022-09-05T15:34:52.038Z,27.30
2022-09-05T15:37:24.278Z,27.40
2022-09-05T15:40:03.550Z,27.30
2022-09-05T15:42:37.422Z,27.20
2022-09-05T15:45:12.854Z,27.20
2022-09-05T15:47:47.225Z,27.30
2022-09-05T15:50:21.293Z,27.30
2022-09-05T15:52:53.477Z,27.40
2022-09-05T15:55:24.357Z,27.30
2022-09-05T15:57:55.747Z,27.30
2022-09-05T16:00:46.138Z,27.30
2022-09-05T16:05:11.789Z,27.30
2022-09-05T16:10:37.631Z,27.30
2022-09-05T16:10:45.711Z,27.40
2022-09-05T16:12:17.882Z,27.50
2022-09-05T16:14:46.513Z,27.50
2022-09-05T16:23:13.910Z,27.60
2022-09-05T16:23:25.483Z,27.60
2022-09-05T16:23:41.560Z,27.50
2022-09-05T16:26:29.413Z,27.40
2022-09-05T16:29:05.876Z,27.20
2022-09-05T16:31:38.462Z,27.00
2022-09-05T16:34:10.386Z,26.80
2022-09-05T16:37:08.543Z,26.70
2022-09-05T16:39:39.952Z,26.50
2022-09-05T16:42:21.015Z,26.20
2022-09-05T16:45:05.727Z,26.00
2022-09-05T16:47:59.683Z,25.80
2022-09-05T16:50:34.465Z,25.60
2022-09-05T16:53:09.966Z,25.40
2022-09-05T16:55:57.560Z,25.30
2022-09-05T16:58:28.044Z,25.10
2022-09-05T17:01:24.310Z,25.10
2022-09-05T17:04:06.338Z,24.90
2022-09-05T17:06:45.873Z,24.80
2022-09-05T17:09:28.255Z,24.70
2022-09-05T17:12:06.675Z,24.60
2022-09-05T17:14:44.971Z,24.40
2022-09-05T17:18:18.642Z,24.30
2022-09-05T17:20:12.481Z,24.20
2022-09-05T17:24:49.369Z,23.90
2022-09-05T17:29:29.830Z,23.90
2022-09-05T17:29:32.182Z,23.70
2022-09-05T17:32:01.020Z,23.70
2022-09-05T17:34:42.038Z,23.60
2022-09-05T17:37:20.510Z,23.40
2022-09-05T17:40:34.700Z,23.40
2022-09-05T17:43:05.935Z,23.20
2022-09-05T17:45:57.520Z,23.10
2022-09-05T17:48:45.888Z,23.00
2022-09-05T17:51:27.557Z,22.80
2022-09-05T17:54:00.132Z,22.70
2022-09-05T17:56:36.216Z,22.60
2022-09-05T17:59:22.985Z,22.50
2022-09-05T18:02:01.834Z,22.40
2022-09-05T18:04:46.281Z,22.30
2022-09-05T18:07:28.192Z,22.20
2022-09-05T18:10:15.211Z,22.10
2022-09-05T18:13:12.692Z,21.90
2022-09-05T18:15:33.610Z,21.80
2022-09-05T18:18:05.733Z,21.70
2022-09-05T18:20:42.508Z,21.70
2022-09-05T18:23:37.644Z,21.70
2022-09-05T18:26:13.958Z,21.60
2022-09-05T18:29:14.503Z,21.60
2022-09-05T18:31:43.526Z,21.60
2022-09-05T18:34:13.291Z,21.50
2022-09-05T18:36:55.977Z,21.50
2022-09-05T18:39:25.912Z,21.40
2022-09-05T18:42:26.023Z,21.20
2022-09-05T18:44:59.392Z,21.00
2022-09-05T18:47:51.233Z,20.90
2022-09-05T18:50:26.186Z,20.90
2022-09-05T18:53:10.585Z,20.90
2022-09-05T18:56:11.163Z,20.90
2022-09-05T18:59:18.634Z,20.80
2022-09-05T19:02:44.247Z,20.80
2022-09-05T19:05:16.002Z,20.80
2022-09-05T19:07:48.071Z,20.70
2022-09-05T19:10:35.240Z,20.70
2022-09-05T19:13:33.630Z,20.70
2022-09-05T19:16:47.356Z,20.60
2022-09-05T19:19:17.710Z,20.50
2022-09-05T19:22:05.547Z,20.40
2022-09-05T19:24:45.155Z,20.40
2022-09-05T19:30:48.962Z,20.30
2022-09-05T19:36:49.845Z,20.20
2022-09-05T19:37:02.459Z,20.30
2022-09-05T19:37:06.389Z,20.30
2022-09-05T19:38:24.384Z,20.20
2022-09-05T19:47:28.823Z,20.10
2022-09-05T19:47:37.946Z,20.00
2022-09-05T19:47:39.305Z,20.00
2022-09-05T19:49:13.304Z,20.00
2022-09-05T19:51:41.059Z,20.00
2022-09-05T19:54:21.944Z,20.00
2022-09-05T19:56:48.759Z,20.00
2022-09-05T19:59:27.614Z,19.90
2022-09-05T20:02:02.095Z,19.90
2022-09-05T20:04:35.374Z,19.90
2022-09-05T20:07:14.673Z,19.90
2022-09-05T20:09:47.032Z,19.80
2022-09-05T20:12:23.561Z,19.70
2022-09-05T20:14:51.016Z,19.70
2022-09-05T20:17:29.463Z,19.60
2022-09-05T20:20:09.648Z,19.60
2022-09-05T20:22:48.982Z,19.60
2022-09-05T20:25:39.317Z,19.60
2022-09-05T20:28:13.142Z,19.50
2022-09-05T20:30:47.379Z,19.50
2022-09-05T20:33:25.782Z,19.40
2022-09-05T20:38:42.140Z,19.40
2022-09-05T20:43:20.996Z,19.40
2022-09-05T20:43:24.164Z,19.30
2022-09-05T20:44:48.314Z,19.20
2022-09-05T20:50:14.325Z,19.20
2022-09-05T20:54:15.345Z,19.20
2022-09-05T20:54:15.414Z,19.10
2022-09-05T20:56:09.767Z,19.00
2022-09-05T20:58:38.710Z,19.10
2022-09-05T21:01:22.233Z,19.10
2022-09-05T21:04:03.655Z,19.10
2022-09-05T21:06:37.181Z,19.10
2022-09-05T21:09:25.278Z,19.10
2022-09-05T21:11:54.706Z,19.10
2022-09-05T21:14:23.249Z,19.10
2022-09-05T21:16:59.691Z,19.10
2022-09-05T21:19:34.449Z,19.10
2022-09-05T21:22:20.975Z,19.10
2022-09-05T21:24:48.362Z,19.00
2022-09-05T21:27:25.174Z,19.00
2022-09-05T21:29:58.627Z,18.90
2022-09-05T21:32:27.948Z,18.90
2022-09-05T21:35:15.445Z,18.90
2022-09-05T21:37:53.464Z,18.80
2022-09-05T21:40:20.271Z,18.70
2022-09-05T21:47:37.492Z,18.60
2022-09-05T21:47:42.804Z,18.60
2022-09-05T21:48:20.993Z,18.60
2022-09-05T21:50:50.501Z,18.60
2022-09-05T21:56:55.997Z,18.70
2022-09-05T21:59:24.362Z,18.60
2022-09-05T21:59:33.664Z,18.60
2022-09-05T22:02:01.815Z,18.60
2022-09-05T22:04:28.455Z,18.50
2022-09-05T22:06:57.298Z,18.50
2022-09-05T22:09:23.961Z,18.50
2022-09-05T22:11:50.882Z,18.50
2022-09-05T22:14:19.305Z,18.40
2022-09-05T22:16:46.679Z,18.30
2022-09-05T22:19:24.338Z,18.30
2022-09-05T22:21:54.563Z,18.30
2022-09-05T22:24:24.562Z,18.30
2022-09-05T22:27:12.109Z,18.30
2022-09-05T22:29:38.363Z,18.20
2022-09-05T22:32:05.601Z,18.20
2022-09-05T22:34:32.205Z,18.20
2022-09-05T22:36:58.855Z,18.10
2022-09-05T22:39:36.787Z,18.10
2022-09-05T22:42:10.166Z,18.10
2022-09-05T22:44:41.356Z,18.00
2022-09-05T22:47:10.650Z,18.00
2022-09-05T22:49:37.441Z,18.00
2022-09-05T22:52:08.449Z,18.00
2022-09-05T22:54:35.703Z,18.00
2022-09-05T22:57:04.027Z,17.90
2022-09-05T22:59:31.313Z,17.90
2022-09-05T23:01:58.168Z,17.90
2022-09-05T23:04:25.095Z,17.90
2022-09-05T23:06:51.721Z,17.80
2022-09-05T23:09:18.323Z,17.80
2022-09-05T23:11:44.903Z,17.80
2022-09-05T23:14:11.511Z,17.80
2022-09-05T23:16:38.103Z,17.70
2022-09-05T23:19:04.698Z,17.50
2022-09-05T23:21:31.299Z,17.50
2022-09-05T23:23:57.877Z,17.50
2022-09-05T23:26:24.486Z,17.40
2022-09-05T23:28:51.076Z,17.40
2022-09-05T23:31:17.752Z,17.30
2022-09-05T23:33:44.366Z,17.30
2022-09-05T23:36:12.730Z,17.40
2022-09-05T23:38:41.623Z,17.40
2022-09-05T23:41:13.084Z,17.40
2022-09-05T23:43:39.675Z,17.40
2022-09-05T23:46:06.639Z,17.40
2022-09-05T23:48:33.360Z,17.30
2022-09-05T23:51:11.281Z,17.40
2022-09-05T23:53:38.712Z,17.20
2022-09-05T23:56:07.791Z,17.20
2022-09-05T23:58:35.571Z,17.30
